createdAt,value
2019-06-01T00:00:18.897Z,15.28
2019-06-01T00:01:19.096Z,15.39
2019-06-01T00:02:19.415Z,15.33
2019-06-01T00:03:19.506Z,15.38
2019-06-01T00:04:19.718Z,15.42
2019-06-01T00:05:19.977Z,15.42
2019-06-01T00:06:20.049Z,15.43
2019-06-01T00:07:20.255Z,15.39
2019-06-01T00:08:20.473Z,15.35
2019-06-01T00:09:20.679Z,15.30
2019-06-01T00:10:20.890Z,15.28
2019-06-01T00:11:21.102Z,15.30
2019-06-01T00:12:21.302Z,15.35
2019-06-01T00:13:21.512Z,15.27
2019-06-01T00:14:21.715Z,15.21
2019-06-01T00:15:21.929Z,15.17
2019-06-01T00:16:22.147Z,15.23
2019-06-01T00:17:22.386Z,15.15
2019-06-01T00:18:22.624Z,15.11
2019-06-01T00:19:22.710Z,15.13
2019-06-01T00:20:24.536Z,15.13
2019-06-01T00:21:23.122Z,15.17
2019-06-01T00:22:23.326Z,15.12
2019-06-01T00:23:23.555Z,15.12
2019-06-01T00:24:25.544Z,15.19
2019-06-01T00:25:23.985Z,15.15
2019-06-01T00:26:24.195Z,15.11
2019-06-01T00:27:24.418Z,15.17
2019-06-01T00:28:24.627Z,15.09
2019-06-01T00:29:24.836Z,15.08
2019-06-01T00:30:27.383Z,15.03
2019-06-01T00:31:25.263Z,15.03
2019-06-01T00:32:25.467Z,14.99
2019-06-01T00:33:25.690Z,14.91
2019-06-01T00:34:25.892Z,14.99
2019-06-01T00:35:26.094Z,14.93
2019-06-01T00:36:26.312Z,15.02
2019-06-01T00:37:26.519Z,14.83
2019-06-01T00:38:26.735Z,14.86
2019-06-01T00:39:26.941Z,14.87
2019-06-01T00:40:27.156Z,14.86
2019-06-01T00:41:27.371Z,14.86
2019-06-01T00:42:27.583Z,14.84
2019-06-01T00:43:27.789Z,14.87
2019-06-01T00:44:28.008Z,14.81
2019-06-01T00:45:28.213Z,14.75
2019-06-01T00:46:28.428Z,14.65
2019-06-01T00:47:28.638Z,14.53
2019-06-01T00:48:28.839Z,14.67
2019-06-01T00:49:29.048Z,14.56
2019-06-01T00:50:29.253Z,14.64
2019-06-01T00:51:31.037Z,14.56
2019-06-01T00:52:29.624Z,14.61
2019-06-01T00:53:29.830Z,14.54
2019-06-01T00:54:30.055Z,14.52
2019-06-01T00:55:32.036Z,14.42
2019-06-01T00:56:30.494Z,14.52
2019-06-01T00:57:30.693Z,14.50
2019-06-01T00:58:30.900Z,14.47
2019-06-01T00:59:31.478Z,14.38
2019-06-01T01:00:43.246Z,14.37
2019-06-01T01:01:31.560Z,14.44
2019-06-01T01:02:31.761Z,14.46
2019-06-01T01:03:31.974Z,14.43
2019-06-01T01:04:32.176Z,14.35
2019-06-01T01:05:32.402Z,14.39
2019-06-01T01:06:32.585Z,14.47
2019-06-01T01:07:32.801Z,14.42
2019-06-01T01:08:32.996Z,14.44
2019-06-01T01:09:33.286Z,14.43
2019-06-01T01:10:33.408Z,14.43
2019-06-01T01:11:33.638Z,14.47
2019-06-01T01:12:33.887Z,14.42
2019-06-01T01:13:35.051Z,14.52
2019-06-01T01:14:36.031Z,14.44
2019-06-01T01:15:34.497Z,14.46
2019-06-01T01:16:34.704Z,14.34
2019-06-01T01:17:34.916Z,14.27
2019-06-01T01:18:35.124Z,14.27
2019-06-01T01:19:35.344Z,14.20
2019-06-01T01:20:35.547Z,14.25
2019-06-01T01:21:35.819Z,14.28
2019-06-01T01:22:36.008Z,14.29
2019-06-01T01:23:36.188Z,14.28
2019-06-01T01:24:36.400Z,14.25
2019-06-01T01:25:36.700Z,14.19
2019-06-01T01:26:36.865Z,14.17
2019-06-01T01:27:36.988Z,14.20
2019-06-01T01:28:37.199Z,14.12
2019-06-01T01:29:37.415Z,14.25
2019-06-01T01:30:37.624Z,14.28
2019-06-01T01:31:39.608Z,14.16
2019-06-01T01:32:38.028Z,14.17
2019-06-01T01:33:38.227Z,14.06
2019-06-01T01:34:38.447Z,14.14
2019-06-01T01:35:38.660Z,14.06
2019-06-01T01:36:38.867Z,14.10
2019-06-01T01:37:39.098Z,14.07
2019-06-01T01:38:41.049Z,13.96
2019-06-01T01:39:39.493Z,14.10
2019-06-01T01:40:39.709Z,13.96
2019-06-01T01:41:39.919Z,14.02
2019-06-01T01:42:40.165Z,14.09
2019-06-01T01:43:40.252Z,13.96
2019-06-01T01:44:40.454Z,13.94
2019-06-01T01:45:40.776Z,13.91
2019-06-01T01:46:40.862Z,13.95
2019-06-01T01:47:41.124Z,13.98
2019-06-01T01:48:41.308Z,14.04
2019-06-01T01:49:41.518Z,14.04
2019-06-01T01:50:41.729Z,13.99
2019-06-01T01:51:41.945Z,14.04
2019-06-01T01:52:42.198Z,13.98
2019-06-01T01:53:49.077Z,14.01
2019-06-01T01:54:44.052Z,14.02
2019-06-01T01:55:46.545Z,13.94
2019-06-01T01:56:42.748Z,13.96
2019-06-01T01:57:42.963Z,13.89
2019-06-01T01:58:43.164Z,13.98
2019-06-01T01:59:43.381Z,13.96
2019-06-01T02:00:43.584Z,14.01
2019-06-01T02:01:43.782Z,13.95
2019-06-01T02:02:43.993Z,13.79
2019-06-01T02:03:44.206Z,13.80
2019-06-01T02:04:44.411Z,13.76
2019-06-01T02:05:44.618Z,13.80
2019-06-01T02:06:44.815Z,13.76
2019-06-01T02:07:46.567Z,13.73
2019-06-01T02:08:47.041Z,13.76
2019-06-01T02:09:47.038Z,13.77
2019-06-01T02:10:45.509Z,13.70
2019-06-01T02:11:45.723Z,13.73
2019-06-01T02:12:45.927Z,13.59
2019-06-01T02:13:46.140Z,13.70
2019-06-01T02:14:46.346Z,13.74
2019-06-01T02:15:46.546Z,13.70
2019-06-01T02:16:46.760Z,13.65
2019-06-01T02:17:46.966Z,13.61
2019-06-01T02:18:47.191Z,13.59
2019-06-01T02:19:47.387Z,13.51
2019-06-01T02:20:49.536Z,13.55
2019-06-01T02:21:50.556Z,13.46
2019-06-01T02:22:47.888Z,13.44
2019-06-01T02:23:48.097Z,13.40
2019-06-01T02:24:48.295Z,13.46
2019-06-01T02:25:48.495Z,13.43
2019-06-01T02:26:48.739Z,13.41
2019-06-01T02:27:48.917Z,13.46
2019-06-01T02:28:49.130Z,13.54
2019-06-01T02:29:49.346Z,13.43
2019-06-01T02:30:51.552Z,13.32
2019-06-01T02:31:49.773Z,13.44
2019-06-01T02:32:49.979Z,13.38
2019-06-01T02:33:50.092Z,13.40
2019-06-01T02:34:50.302Z,13.36
2019-06-01T02:35:50.513Z,13.25
2019-06-01T02:36:50.734Z,13.38
2019-06-01T02:37:50.937Z,13.29
2019-06-01T02:38:51.146Z,13.46
2019-06-01T02:39:51.357Z,13.29
2019-06-01T02:40:51.563Z,13.25
2019-06-01T02:41:51.774Z,13.41
2019-06-01T02:42:51.980Z,13.36
2019-06-01T02:43:54.745Z,13.37
2019-06-01T02:44:52.403Z,13.40
2019-06-01T02:45:52.598Z,13.27
2019-06-01T02:46:52.813Z,13.30
2019-06-01T02:47:53.012Z,13.38
2019-06-01T02:48:53.216Z,13.36
2019-06-01T02:49:53.443Z,13.27
2019-06-01T02:50:53.644Z,13.41
2019-06-01T02:51:55.039Z,13.43
2019-06-01T02:52:55.434Z,13.40
2019-06-01T02:53:55.501Z,13.30
2019-06-01T02:54:55.568Z,13.30
2019-06-01T02:55:55.735Z,13.40
2019-06-01T02:56:55.778Z,13.29
2019-06-01T02:57:56.542Z,13.25
2019-06-01T02:58:56.093Z,13.27
2019-06-01T02:59:56.302Z,13.33
2019-06-01T03:00:56.567Z,13.29
2019-06-01T03:01:58.198Z,13.38
2019-06-01T03:02:56.582Z,13.30
2019-06-01T03:03:59.528Z,13.32
2019-06-01T03:04:57.054Z,13.25
2019-06-01T03:05:57.422Z,13.33
2019-06-01T03:06:59.524Z,13.27
2019-06-01T03:07:57.294Z,13.29
2019-06-01T03:08:57.710Z,13.32
2019-06-01T03:09:58.711Z,13.27
2019-06-01T03:10:59.729Z,13.30
2019-06-01T03:12:00.367Z,13.37
2019-06-01T03:12:58.168Z,13.24
2019-06-01T03:13:58.313Z,13.18
2019-06-01T03:14:58.483Z,13.22
2019-06-01T03:15:58.697Z,13.20
2019-06-01T03:16:59.775Z,13.17
2019-06-01T03:17:59.433Z,13.17
2019-06-01T03:18:59.657Z,13.17
2019-06-01T03:19:59.618Z,13.20
2019-06-01T03:21:01.701Z,13.09
2019-06-01T03:21:59.747Z,13.09
2019-06-01T03:22:59.961Z,13.15
2019-06-01T03:24:00.184Z,13.20
2019-06-01T03:25:00.397Z,13.18
2019-06-01T03:26:01.964Z,13.18
2019-06-01T03:27:02.882Z,13.06
2019-06-01T03:28:02.106Z,13.07
2019-06-01T03:29:03.236Z,12.99
2019-06-01T03:30:03.927Z,13.00
2019-06-01T03:31:03.551Z,13.07
2019-06-01T03:32:26.191Z,13.00
2019-06-01T03:33:06.125Z,12.95
2019-06-01T03:34:04.462Z,13.00
2019-06-01T03:35:02.900Z,13.11
2019-06-01T03:36:02.837Z,13.02
2019-06-01T03:37:02.968Z,13.14
2019-06-01T03:38:03.094Z,13.07
2019-06-01T03:39:03.994Z,13.15
2019-06-01T03:40:06.800Z,13.20
2019-06-01T03:41:04.022Z,13.20
2019-06-01T03:42:05.125Z,13.15
2019-06-01T03:43:04.355Z,13.20
2019-06-01T03:44:04.500Z,13.33
2019-06-01T03:45:05.504Z,13.37
2019-06-01T03:46:04.776Z,13.22
2019-06-01T03:47:07.585Z,13.51
2019-06-01T03:48:05.114Z,13.38
2019-06-01T03:49:05.761Z,13.44
2019-06-01T03:50:06.806Z,13.32
2019-06-01T03:51:05.785Z,13.32
2019-06-01T03:52:06.929Z,13.24
2019-06-01T03:53:06.165Z,13.33
2019-06-01T03:54:06.907Z,13.24
2019-06-01T03:55:08.547Z,13.27
2019-06-01T03:56:06.992Z,13.40
2019-06-01T03:57:07.285Z,13.37
2019-06-01T03:58:07.304Z,13.29
2019-06-01T03:59:07.380Z,13.33
2019-06-01T04:00:09.565Z,13.40
2019-06-01T04:01:07.742Z,13.47
2019-06-01T04:02:09.118Z,13.37
2019-06-01T04:03:09.219Z,13.41
2019-06-01T04:04:09.348Z,13.38
2019-06-01T04:05:09.344Z,13.41
2019-06-01T04:06:09.456Z,13.55
2019-06-01T04:07:10.625Z,13.61
2019-06-01T04:08:09.692Z,13.55
2019-06-01T04:09:09.928Z,13.47
2019-06-01T04:10:11.853Z,13.56
2019-06-01T04:11:09.875Z,13.69
2019-06-01T04:12:09.963Z,13.47
2019-06-01T04:13:12.040Z,13.56
2019-06-01T04:14:12.067Z,13.69
2019-06-01T04:15:14.594Z,13.69
2019-06-01T04:16:12.547Z,13.69
2019-06-01T04:17:12.153Z,13.67
2019-06-01T04:18:13.961Z,13.74
2019-06-01T04:19:12.199Z,13.79
2019-06-01T04:20:12.336Z,13.71
2019-06-01T04:21:13.547Z,13.76
2019-06-01T04:22:12.217Z,13.84
2019-06-01T04:23:12.423Z,13.83
2019-06-01T04:24:12.414Z,13.89
2019-06-01T04:25:12.491Z,13.92
2019-06-01T04:26:16.549Z,14.02
2019-06-01T04:27:14.554Z,13.99
2019-06-01T04:28:13.013Z,14.06
2019-06-01T04:29:13.214Z,14.04
2019-06-01T04:30:13.698Z,14.16
2019-06-01T04:31:13.638Z,14.13
2019-06-01T04:32:13.850Z,14.10
2019-06-01T04:33:14.068Z,14.19
2019-06-01T04:34:14.271Z,14.20
2019-06-01T04:35:14.492Z,14.25
2019-06-01T04:36:16.557Z,14.21
2019-06-01T04:37:16.543Z,14.20
2019-06-01T04:38:15.132Z,14.28
2019-06-01T04:39:15.336Z,14.28
2019-06-01T04:40:15.545Z,14.29
2019-06-01T04:41:15.772Z,14.34
2019-06-01T04:42:15.966Z,14.20
2019-06-01T04:43:16.247Z,14.24
2019-06-01T04:44:18.476Z,14.21
2019-06-01T04:45:16.517Z,14.24
2019-06-01T04:46:16.736Z,14.28
2019-06-01T04:47:16.941Z,14.19
2019-06-01T04:48:17.160Z,14.39
2019-06-01T04:49:17.383Z,14.20
2019-06-01T04:50:20.564Z,14.34
2019-06-01T04:51:17.771Z,14.34
2019-06-01T04:52:18.020Z,14.16
2019-06-01T04:53:18.196Z,14.16
2019-06-01T04:54:18.406Z,14.28
2019-06-01T04:55:18.612Z,14.25
2019-06-01T04:56:18.828Z,14.35
2019-06-01T04:57:19.035Z,14.35
2019-06-01T04:58:19.251Z,14.44
2019-06-01T04:59:21.063Z,14.56
2019-06-01T05:00:27.280Z,14.52
2019-06-01T05:01:19.741Z,14.57
2019-06-01T05:02:19.942Z,14.64
2019-06-01T05:03:22.104Z,14.64
2019-06-01T05:04:20.281Z,14.69
2019-06-01T05:05:20.496Z,14.65
2019-06-01T05:06:20.712Z,14.64
2019-06-01T05:07:20.914Z,14.74
2019-06-01T05:08:23.080Z,14.86
2019-06-01T05:09:23.057Z,14.78
2019-06-01T05:10:23.047Z,14.81
2019-06-01T05:11:21.515Z,14.84
2019-06-01T05:12:21.719Z,14.75
2019-06-01T05:13:21.976Z,14.81
2019-06-01T05:14:22.163Z,14.86
2019-06-01T05:15:22.384Z,14.80
2019-06-01T05:16:22.595Z,14.86
2019-06-01T05:17:22.809Z,14.75
2019-06-01T05:18:23.016Z,14.80
2019-06-01T05:19:23.230Z,14.93
2019-06-01T05:20:23.439Z,14.93
2019-06-01T05:21:23.718Z,15.03
2019-06-01T05:22:23.791Z,15.03
2019-06-01T05:23:24.005Z,15.11
2019-06-01T05:24:24.207Z,15.01
2019-06-01T05:25:24.429Z,15.11
2019-06-01T05:26:24.644Z,15.02
2019-06-01T05:27:24.882Z,15.05
2019-06-01T05:28:24.964Z,15.06
2019-06-01T05:29:25.233Z,14.99
2019-06-01T05:30:25.415Z,15.01
2019-06-01T05:31:25.631Z,15.06
2019-06-01T05:32:25.842Z,15.13
2019-06-01T05:33:37.022Z,14.99
2019-06-01T05:34:26.266Z,14.99
2019-06-01T05:35:26.479Z,15.06
2019-06-01T05:36:26.684Z,15.05
2019-06-01T05:37:28.551Z,15.08
2019-06-01T05:38:27.005Z,15.17
2019-06-01T05:39:27.220Z,15.26
2019-06-01T05:40:27.424Z,15.27
2019-06-01T05:41:27.686Z,15.35
2019-06-01T05:42:27.886Z,15.38
2019-06-01T05:43:30.050Z,15.33
2019-06-01T05:44:28.260Z,15.43
2019-06-01T05:45:28.476Z,15.51
2019-06-01T05:46:28.677Z,15.49
2019-06-01T05:47:28.990Z,15.67
2019-06-01T05:48:30.793Z,15.70
2019-06-01T05:49:29.293Z,15.84
2019-06-01T05:50:31.051Z,15.88
2019-06-01T05:51:31.564Z,15.88
2019-06-01T05:52:29.776Z,16.03
2019-06-01T05:53:31.609Z,16.15
2019-06-01T05:54:30.344Z,16.18
2019-06-01T05:55:30.296Z,16.63
2019-06-01T05:56:30.509Z,17.28
2019-06-01T05:57:30.725Z,17.28
2019-06-01T05:58:32.577Z,17.41
2019-06-01T05:59:31.148Z,17.54
2019-06-01T06:00:33.125Z,17.51
2019-06-01T06:01:31.499Z,17.94
2019-06-01T06:02:33.549Z,18.07
2019-06-01T06:03:39.923Z,18.37
2019-06-01T06:04:32.069Z,18.33
2019-06-01T06:05:32.278Z,18.34
2019-06-01T06:06:32.491Z,18.43
2019-06-01T06:07:34.550Z,18.22
2019-06-01T06:08:32.912Z,18.17
2019-06-01T06:09:34.553Z,18.06
2019-06-01T06:10:33.137Z,18.02
2019-06-01T06:11:33.348Z,17.97
2019-06-01T06:12:33.555Z,17.94
2019-06-01T06:13:33.776Z,18.04
2019-06-01T06:14:34.010Z,17.78
2019-06-01T06:15:36.094Z,17.54
2019-06-01T06:16:34.386Z,17.79
2019-06-01T06:17:36.551Z,17.91
2019-06-01T06:18:36.564Z,17.76
2019-06-01T06:19:34.910Z,18.03
2019-06-01T06:20:35.147Z,17.89
2019-06-01T06:21:35.273Z,17.95
2019-06-01T06:22:37.058Z,18.04
2019-06-01T06:23:39.050Z,18.12
2019-06-01T06:24:35.651Z,18.25
2019-06-01T06:25:39.705Z,18.36
2019-06-01T06:26:36.029Z,18.79
2019-06-01T06:27:38.062Z,18.97
2019-06-01T06:28:36.467Z,19.05
2019-06-01T06:29:40.556Z,19.40
2019-06-01T06:30:40.573Z,19.46
2019-06-01T06:31:38.548Z,19.47
2019-06-01T06:32:37.179Z,19.48
2019-06-01T06:33:55.575Z,19.35
2019-06-01T06:34:43.100Z,19.39
2019-06-01T06:35:40.558Z,19.35
2019-06-01T06:36:37.936Z,19.55
2019-06-01T06:37:38.088Z,19.46
2019-06-01T06:38:40.063Z,19.43
2019-06-01T06:39:38.525Z,19.39
2019-06-01T06:40:38.734Z,19.13
2019-06-01T06:41:40.590Z,19.29
2019-06-01T06:42:55.057Z,19.35
2019-06-01T06:43:46.666Z,19.35
2019-06-01T06:44:41.608Z,19.39
2019-06-01T06:45:40.920Z,19.28
2019-06-01T06:46:39.936Z,19.38
2019-06-01T06:47:40.019Z,19.33
2019-06-01T06:48:42.054Z,19.32
2019-06-01T06:49:40.381Z,19.39
2019-06-01T06:50:40.625Z,19.23
2019-06-01T06:51:44.567Z,19.33
2019-06-01T06:52:41.018Z,19.28
2019-06-01T06:53:43.054Z,19.23
2019-06-01T06:54:43.058Z,19.11
2019-06-01T06:55:45.283Z,18.97
2019-06-01T06:56:41.761Z,19.08
2019-06-01T06:57:43.023Z,19.15
2019-06-01T06:58:47.094Z,19.25
2019-06-01T06:59:44.056Z,19.36
2019-06-01T07:00:42.644Z,19.35
2019-06-01T07:01:44.568Z,19.47
2019-06-01T07:02:44.574Z,19.51
2019-06-01T07:03:47.082Z,19.60
2019-06-01T07:04:43.292Z,19.63
2019-06-01T07:05:45.089Z,19.58
2019-06-01T07:06:47.563Z,19.46
2019-06-01T07:07:45.560Z,19.60
2019-06-01T07:08:49.010Z,19.57
2019-06-01T07:09:44.279Z,19.48
2019-06-01T07:10:44.490Z,19.65
2019-06-01T07:11:44.772Z,19.80
2019-06-01T07:12:47.169Z,20.02
2019-06-01T07:13:47.062Z,20.18
2019-06-01T07:14:45.266Z,20.33
2019-06-01T07:15:47.070Z,20.47
2019-06-01T07:16:47.903Z,20.58
2019-06-01T07:17:47.568Z,20.81
2019-06-01T07:18:49.608Z,20.51
2019-06-01T07:19:48.123Z,20.71
2019-06-01T07:20:48.062Z,20.87
2019-06-01T07:21:46.838Z,21.19
2019-06-01T07:22:48.546Z,21.67
2019-06-01T07:24:07.940Z,21.63
2019-06-01T07:24:49.074Z,21.83
2019-06-01T07:25:49.091Z,21.82
2019-06-01T07:26:49.105Z,22.13
2019-06-01T07:27:49.090Z,22.87
2019-06-01T07:28:49.589Z,23.22
2019-06-01T07:29:49.558Z,23.40
2019-06-01T07:30:51.143Z,24.38
2019-06-01T07:31:48.407Z,24.60
2019-06-01T07:32:51.044Z,24.53
2019-06-01T07:33:48.643Z,24.34
2019-06-01T07:34:48.883Z,24.35
2019-06-01T07:35:55.274Z,24.27
2019-06-01T07:36:53.065Z,24.24
2019-06-01T07:37:53.064Z,24.59
2019-06-01T07:38:50.683Z,25.02
2019-06-01T07:40:13.868Z,25.12
2019-06-01T07:40:52.527Z,25.12
2019-06-01T07:42:13.085Z,25.13
2019-06-01T07:42:50.379Z,25.09
2019-06-01T07:43:53.598Z,25.37
2019-06-01T07:44:50.838Z,25.65
2019-06-01T07:45:51.046Z,25.83
2019-06-01T07:47:16.069Z,25.49
2019-06-01T07:47:53.717Z,25.53
2019-06-01T07:48:53.595Z,25.57
2019-06-01T07:49:55.016Z,25.15
2019-06-01T07:50:53.576Z,25.97
2019-06-01T07:51:52.264Z,26.29
2019-06-01T07:52:54.062Z,26.46
2019-06-01T07:54:00.580Z,26.95
2019-06-01T07:54:52.852Z,27.24
2019-06-01T07:55:54.900Z,27.39
2019-06-01T07:56:55.119Z,27.70
2019-06-01T07:58:00.067Z,28.40
2019-06-01T07:58:55.935Z,28.90
2019-06-01T07:59:53.820Z,29.10
2019-06-01T08:00:54.077Z,29.52
2019-06-01T08:01:58.086Z,29.56
2019-06-01T08:02:56.153Z,29.99
2019-06-01T08:03:54.750Z,29.89
2019-06-01T08:04:54.963Z,29.90
2019-06-01T08:05:56.574Z,30.02
2019-06-01T08:06:57.152Z,30.24
2019-06-01T08:08:11.073Z,30.31
2019-06-01T08:08:58.517Z,30.26
2019-06-01T08:09:56.801Z,30.30
2019-06-01T08:11:02.575Z,29.53
2019-06-01T08:11:59.017Z,29.81
2019-06-01T08:12:58.108Z,29.77
2019-06-01T08:13:58.701Z,29.87
2019-06-01T08:15:01.082Z,29.70
2019-06-01T08:15:58.575Z,29.43
2019-06-01T08:16:58.590Z,29.59
2019-06-01T08:17:57.418Z,29.29
2019-06-01T08:18:59.239Z,29.25
2019-06-01T08:20:01.574Z,29.53
2019-06-01T08:21:01.796Z,29.07
2019-06-01T08:21:59.710Z,29.29
2019-06-01T08:22:58.737Z,29.68
2019-06-01T08:24:02.924Z,30.30
2019-06-01T08:25:00.733Z,30.19
2019-06-01T08:26:01.528Z,30.53
2019-06-01T08:27:02.073Z,30.57
2019-06-01T08:28:01.171Z,31.11
2019-06-01T08:29:01.127Z,31.28
2019-06-01T08:30:00.573Z,31.48
2019-06-01T08:31:01.575Z,31.28
2019-06-01T08:32:02.552Z,31.65
2019-06-01T08:33:08.068Z,32.07
2019-06-01T08:34:08.512Z,32.11
2019-06-01T08:35:08.423Z,32.17
2019-06-01T08:36:02.572Z,32.40
2019-06-01T08:37:02.953Z,32.71
2019-06-01T08:38:08.029Z,32.71
2019-06-01T08:39:02.086Z,32.88
2019-06-01T08:40:05.072Z,32.80
2019-06-01T08:41:03.915Z,33.06
2019-06-01T08:42:01.934Z,33.57
2019-06-01T08:43:04.577Z,33.68
2019-06-01T08:44:06.065Z,33.52
2019-06-01T08:45:02.933Z,33.55
2019-06-01T08:46:02.681Z,33.60
2019-06-01T08:47:04.578Z,33.51
2019-06-01T08:49:38.564Z,33.03
2019-06-01T08:50:35.022Z,32.54
2019-06-01T08:51:39.115Z,32.55
2019-06-01T08:52:37.128Z,32.54
2019-06-01T08:53:40.257Z,32.91
2019-06-01T08:54:37.685Z,32.89
2019-06-01T08:55:38.523Z,32.95
2019-06-01T08:56:38.734Z,32.55
2019-06-01T08:57:40.096Z,32.91
2019-06-01T08:58:37.793Z,33.36
2019-06-01T08:59:39.654Z,33.08
2019-06-01T09:00:37.139Z,32.62
2019-06-01T09:01:39.156Z,30.98
2019-06-01T09:02:44.153Z,31.28
2019-06-01T09:03:46.634Z,31.38
2019-06-01T09:04:38.062Z,31.50
2019-06-01T09:05:50.237Z,31.76
2019-06-01T09:06:40.974Z,31.40
2019-06-01T09:07:40.125Z,31.33
2019-06-01T09:08:40.582Z,31.49
2019-06-01T09:09:46.657Z,32.00
2019-06-01T09:10:40.178Z,30.89
2019-06-01T09:12:03.096Z,30.91
2019-06-01T09:12:42.172Z,31.61
2019-06-01T09:13:42.590Z,32.07
2019-06-01T09:14:41.573Z,32.42
2019-06-01T09:15:41.572Z,32.55
2019-06-01T09:16:44.071Z,32.79
2019-06-01T09:17:41.046Z,32.86
2019-06-01T09:18:42.582Z,33.39
2019-06-01T09:19:43.690Z,32.66
2019-06-01T09:20:42.640Z,32.02
2019-06-01T09:21:45.093Z,32.02
2019-06-01T09:22:48.247Z,31.77
2019-06-01T09:23:43.570Z,31.85
2019-06-01T09:24:42.527Z,32.39
2019-06-01T09:25:46.109Z,32.40
2019-06-01T09:26:44.155Z,31.53
2019-06-01T09:27:46.265Z,31.67
2019-06-01T09:28:44.355Z,31.18
2019-06-01T09:29:44.761Z,31.84
2019-06-01T09:30:47.202Z,31.67
2019-06-01T09:31:43.301Z,31.06
2019-06-01T09:32:45.102Z,30.43
2019-06-01T09:33:43.710Z,31.15
2019-06-01T09:34:45.023Z,31.76
2019-06-01T09:35:54.525Z,31.96
2019-06-01T09:36:48.174Z,31.87
2019-06-01T09:38:07.547Z,31.70
2019-06-01T09:38:44.879Z,31.36
2019-06-01T09:39:47.144Z,31.18
2019-06-01T09:41:08.419Z,30.81
2019-06-01T09:41:49.121Z,30.11
2019-06-01T09:42:47.607Z,29.87
2019-06-01T09:43:51.907Z,30.33
2019-06-01T09:44:50.088Z,31.06
2019-06-01T09:45:53.121Z,30.89
2019-06-01T09:46:48.100Z,30.47
2019-06-01T09:47:46.954Z,30.43
2019-06-01T09:48:48.074Z,31.01
2019-06-01T09:49:51.602Z,30.49
2019-06-01T09:50:49.083Z,30.72
2019-06-01T09:51:49.065Z,31.02
2019-06-01T09:52:49.728Z,31.33
2019-06-01T09:53:52.614Z,31.13
2019-06-01T09:54:49.687Z,31.49
2019-06-01T09:55:50.059Z,31.33
2019-06-01T09:56:48.319Z,31.04
2019-06-01T09:57:57.003Z,31.30
2019-06-01T09:58:50.660Z,31.58
2019-06-01T09:59:50.675Z,30.89
2019-06-01T10:00:51.130Z,31.30
2019-06-01T10:01:50.403Z,31.30
2019-06-01T10:02:55.457Z,31.58
2019-06-01T10:03:52.083Z,32.15
2019-06-01T10:04:50.114Z,32.33
2019-06-01T10:06:01.326Z,32.43
2019-06-01T10:06:57.091Z,32.58
2019-06-01T10:07:52.094Z,32.69
2019-06-01T10:08:54.607Z,32.95
2019-06-01T10:09:52.597Z,32.67
2019-06-01T10:10:53.533Z,32.39
2019-06-01T10:11:55.201Z,32.20
2019-06-01T10:12:53.077Z,32.13
2019-06-01T10:13:52.786Z,32.03
2019-06-01T10:14:51.932Z,32.17
2019-06-01T10:15:54.102Z,32.29
2019-06-01T10:16:59.208Z,31.87
2019-06-01T10:17:54.131Z,31.76
2019-06-01T10:18:54.204Z,31.87
2019-06-01T10:19:56.573Z,30.90
2019-06-01T10:20:57.083Z,31.13
2019-06-01T10:21:55.043Z,31.54
2019-06-01T10:23:00.075Z,31.92
2019-06-01T10:23:55.632Z,32.35
2019-06-01T10:25:14.903Z,31.75
2019-06-01T10:25:55.172Z,31.96
2019-06-01T10:26:56.098Z,31.77
2019-06-01T10:27:55.610Z,31.87
2019-06-01T10:28:57.562Z,31.57
2019-06-01T10:30:00.524Z,30.98
2019-06-01T10:30:56.031Z,31.06
2019-06-01T10:32:00.119Z,31.24
2019-06-01T10:32:57.265Z,31.27
2019-06-01T10:33:57.662Z,31.67
2019-06-01T10:34:57.897Z,31.87
2019-06-01T10:35:57.114Z,31.99
2019-06-01T10:36:58.078Z,31.70
2019-06-01T10:37:56.542Z,31.42
2019-06-01T10:38:58.643Z,31.80
2019-06-01T10:39:56.884Z,32.21
2019-06-01T10:40:59.134Z,32.48
2019-06-01T10:41:59.167Z,32.69
2019-06-01T10:43:04.087Z,32.64
2019-06-01T10:44:01.093Z,32.91
2019-06-01T10:44:59.601Z,33.26
2019-06-01T10:45:59.091Z,32.93
2019-06-01T10:46:58.060Z,32.84
2019-06-01T10:47:59.784Z,32.54
2019-06-01T10:49:00.282Z,32.39
2019-06-01T10:50:01.478Z,32.05
2019-06-01T10:51:00.419Z,32.14
2019-06-01T10:52:05.246Z,31.99
2019-06-01T10:53:00.762Z,32.17
2019-06-01T10:54:01.487Z,32.36
2019-06-01T10:55:05.718Z,31.92
2019-06-01T10:56:01.623Z,31.80
2019-06-01T10:57:15.692Z,31.80
2019-06-01T10:58:01.354Z,31.64
2019-06-01T10:59:06.714Z,31.67
2019-06-01T11:00:04.358Z,31.57
2019-06-01T11:01:01.669Z,31.57
2019-06-01T11:02:02.621Z,31.77
2019-06-01T11:03:06.369Z,31.88
2019-06-01T11:04:07.185Z,31.76
2019-06-01T11:05:01.544Z,31.40
2019-06-01T11:06:03.779Z,31.21
2019-06-01T11:07:04.109Z,31.02
2019-06-01T11:08:04.172Z,31.46
2019-06-01T11:09:04.149Z,31.67
2019-06-01T11:10:03.618Z,31.61
2019-06-01T11:11:03.819Z,31.84
2019-06-01T11:12:09.576Z,31.77
2019-06-01T11:13:12.142Z,31.31
2019-06-01T11:14:05.085Z,31.20
2019-06-01T11:15:05.831Z,30.96
2019-06-01T11:16:03.770Z,30.94
2019-06-01T11:17:11.665Z,31.05
2019-06-01T11:18:07.049Z,31.30
2019-06-01T11:19:05.715Z,31.18
2019-06-01T11:20:08.580Z,31.28
2019-06-01T11:21:33.508Z,31.39
2019-06-01T11:22:06.596Z,31.11
2019-06-01T11:23:07.075Z,31.15
2019-06-01T11:24:05.413Z,31.13
2019-06-01T11:25:07.685Z,31.31
2019-06-01T11:26:07.578Z,30.99
2019-06-01T11:27:06.824Z,30.98
2019-06-01T11:28:10.011Z,31.21
2019-06-01T11:29:11.063Z,31.09
2019-06-01T11:30:09.080Z,30.87
2019-06-01T11:31:06.535Z,30.72
2019-06-01T11:32:08.664Z,30.27
2019-06-01T11:33:09.261Z,30.16
2019-06-01T11:34:09.219Z,30.12
2019-06-01T11:35:09.164Z,29.72
2019-06-01T11:36:11.219Z,29.60
2019-06-01T11:37:09.628Z,29.49
2019-06-01T11:38:07.834Z,29.53
2019-06-01T11:39:08.084Z,29.72
2019-06-01T11:40:08.224Z,29.63
2019-06-01T11:41:10.148Z,29.94
2019-06-01T11:42:12.573Z,29.92
2019-06-01T11:43:09.915Z,30.19
2019-06-01T11:44:09.038Z,30.23
2019-06-01T11:45:09.596Z,30.27
2019-06-01T11:46:09.999Z,30.24
2019-06-01T11:47:10.604Z,30.31
2019-06-01T11:48:16.991Z,30.26
2019-06-01T11:49:11.607Z,30.24
2019-06-01T11:50:12.571Z,30.02
2019-06-01T11:51:10.333Z,29.97
2019-06-01T11:52:11.593Z,29.81
2019-06-01T11:53:12.580Z,29.84
2019-06-01T11:54:12.584Z,30.03
2019-06-01T11:55:14.600Z,29.84
2019-06-01T11:56:13.105Z,29.86
2019-06-01T11:57:11.651Z,30.09
2019-06-01T11:58:15.764Z,30.33
2019-06-01T11:59:13.663Z,30.24
2019-06-01T12:00:13.036Z,30.30
2019-06-01T12:01:15.162Z,29.99
2019-06-01T12:02:12.439Z,29.57
2019-06-01T12:03:12.533Z,29.70
2019-06-01T12:04:13.769Z,29.94
2019-06-01T12:05:12.954Z,30.30
2019-06-01T12:06:15.100Z,30.24
2019-06-01T12:07:17.907Z,29.99
2019-06-01T12:08:15.087Z,29.82
2019-06-01T12:09:13.735Z,29.94
2019-06-01T12:10:13.917Z,29.89
2019-06-01T12:11:16.127Z,30.02
2019-06-01T12:12:14.487Z,30.19
2019-06-01T12:13:15.943Z,30.09
2019-06-01T12:14:18.611Z,29.92
2019-06-01T12:15:15.057Z,29.86
2019-06-01T12:16:17.119Z,29.66
2019-06-01T12:17:15.484Z,29.78
2019-06-01T12:18:17.600Z,29.74
2019-06-01T12:19:18.566Z,29.78
2019-06-01T12:20:17.176Z,30.00
2019-06-01T12:21:19.203Z,30.08
2019-06-01T12:22:16.535Z,30.11
2019-06-01T12:23:20.585Z,30.24
2019-06-01T12:24:28.743Z,30.37
2019-06-01T12:25:18.591Z,30.38
2019-06-01T12:26:19.034Z,30.56
2019-06-01T12:27:21.161Z,30.47
2019-06-01T12:28:18.614Z,30.29
2019-06-01T12:29:19.867Z,30.26
2019-06-01T12:30:18.063Z,30.31
2019-06-01T12:31:20.136Z,30.45
2019-06-01T12:32:18.381Z,30.61
2019-06-01T12:33:25.193Z,30.49
2019-06-01T12:34:20.588Z,30.67
2019-06-01T12:35:19.969Z,30.76
2019-06-01T12:36:20.636Z,30.75
2019-06-01T12:37:35.935Z,30.76
2019-06-01T12:38:20.060Z,30.59
2019-06-01T12:39:19.660Z,30.45
2019-06-01T12:40:19.839Z,30.23
2019-06-01T12:41:20.097Z,30.23
2019-06-01T12:42:21.040Z,30.27
2019-06-01T12:43:22.353Z,30.15
2019-06-01T12:44:20.620Z,30.33
2019-06-01T12:45:24.594Z,30.27
2019-06-01T12:46:22.621Z,30.40
2019-06-01T12:47:22.587Z,30.23
2019-06-01T12:48:21.299Z,30.21
2019-06-01T12:49:23.086Z,29.96
2019-06-01T12:50:22.549Z,29.90
2019-06-01T12:51:21.791Z,29.70
2019-06-01T12:52:25.630Z,29.57
2019-06-01T12:53:23.240Z,29.47
2019-06-01T12:54:24.091Z,29.62
2019-06-01T12:55:25.892Z,29.71
2019-06-01T12:56:23.742Z,29.77